Rumst, Belgium
Current Conditions -  °F | °C
As of 12:20 PM on Tuesday 21 Oct 2014 (Local Time) from EBAW Reporting Station
Broken Clouds Broken Clouds  
Wind Chill: 55°   Ceiling: 1400
Heat Index: 55°   Visibility: 6mi
Dew Point: 52°   Wind: 18mph
Humidity: 88%   Direction: 220°SW
Pressure: 29.59"   Gusts: 32mph
Location:  51.08°N, 4.42°E
Report Text: EBAW 211020Z 22016G28KT 9999 FEW011 BKN014 13/11 Q1002 RESHRA TEMPO 4500 SHRA
Loading
Personal Weather Stations






























Interactive Weather Map
Tropical Storm Tracking
New forecast layout! Learn more

10-Day Weather Forecast

Advertisements
Track Severe Weather on mobile